sensor_id;sensor_type;location;lat;lon;timestamp;pressure;altitude;pressure_sealevel;temperature;humidity
35892;BME280;21993;42.672;23.296;2023-05-12T00:01:11;94944.94;;;11.12;66.19
35892;BME280;21993;42.672;23.296;2023-05-12T00:03:39;94938.72;;;11.13;65.58
35892;BME280;21993;42.672;23.296;2023-05-12T00:06:05;94948.72;;;11.19;65.70
35892;BME280;21993;42.672;23.296;2023-05-12T00:08:31;94945.13;;;11.20;65.37
35892;BME280;21993;42.672;23.296;2023-05-12T00:10:57;94944.94;;;11.12;65.50
35892;BME280;21993;42.672;23.296;2023-05-12T00:13:23;94943.31;;;11.21;65.91
35892;BME280;21993;42.672;23.296;2023-05-12T00:15:49;94945.31;;;10.98;65.84
35892;BME280;21993;42.672;23.296;2023-05-12T00:18:15;94948.97;;;11.16;65.85
35892;BME280;21993;42.672;23.296;2023-05-12T00:20:41;94937.91;;;11.13;65.42
35892;BME280;21993;42.672;23.296;2023-05-12T00:23:06;94939.94;;;11.09;65.74
35892;BME280;21993;42.672;23.296;2023-05-12T00:25:32;94944.16;;;11.21;65.50
35892;BME280;21993;42.672;23.296;2023-05-12T00:27:57;94951.22;;;11.31;64.63
35892;BME280;21993;42.672;23.296;2023-05-12T00:30:23;94948.97;;;11.16;65.17
35892;BME280;21993;42.672;23.296;2023-05-12T00:32:48;94939.28;;;11.17;65.79
35892;BME280;21993;42.672;23.296;2023-05-12T00:35:15;94935.78;;;11.07;66.50
35892;BME280;21993;42.672;23.296;2023-05-12T00:37:41;94955.16;;;11.06;66.34
35892;BME280;21993;42.672;23.296;2023-05-12T00:40:07;94957.72;;;10.86;66.97
35892;BME280;21993;42.672;23.296;2023-05-12T00:42:34;94948.50;;;11.02;67.66
35892;BME280;21993;42.672;23.296;2023-05-12T00:45:00;94951.81;;;10.73;67.98
35892;BME280;21993;42.672;23.296;2023-05-12T00:47:25;94957.59;;;10.97;67.81
35892;BME280;21993;42.672;23.296;2023-05-12T00:49:51;94956.81;;;11.07;67.77
35892;BME280;21993;42.672;23.296;2023-05-12T00:52:16;94956.81;;;11.07;67.54
35892;BME280;21993;42.672;23.296;2023-05-12T00:54:43;94959.72;;;11.04;68.08
35892;BME280;21993;42.672;23.296;2023-05-12T00:57:09;94958.75;;;11.05;68.77
35892;BME280;21993;42.672;23.296;2023-05-12T00:59:35;94959.34;;;11.18;68.39
35892;BME280;21993;42.672;23.296;2023-05-12T01:02:01;94956.50;;;11.00;69.07
35892;BME280;21993;42.672;23.296;2023-05-12T01:04:27;94956.75;;;10.87;69.33
35892;BME280;21993;42.672;23.296;2023-05-12T01:06:58;94969.47;;;10.92;70.13
35892;BME280;21993;42.672;23.296;2023-05-12T01:09:25;94963.69;;;10.98;70.17
35892;BME280;21993;42.672;23.296;2023-05-12T01:11:50;94966.63;;;11.05;70.21
35892;BME280;21993;42.672;23.296;2023-05-12T01:14:16;94963.47;;;10.80;70.51
35892;BME280;21993;42.672;23.296;2023-05-12T01:16:52;94959.44;;;10.76;71.10
35892;BME280;21993;42.672;23.296;2023-05-12T01:21:50;94965.72;;;10.85;70.79
35892;BME280;21993;42.672;23.296;2023-05-12T01:24:17;94973.97;;;10.80;71.06
35892;BME280;21993;42.672;23.296;2023-05-12T01:26:44;94962.66;;;10.80;71.12
35892;BME280;21993;42.672;23.296;2023-05-12T01:29:10;94969.88;;;10.66;71.29
35892;BME280;21993;42.672;23.296;2023-05-12T01:31:36;94960.81;;;10.70;71.67
35892;BME280;21993;42.672;23.296;2023-05-12T01:34:01;94973.56;;;10.54;71.35
35892;BME280;21993;42.672;23.296;2023-05-12T01:36:26;94970.09;;;10.54;71.34
35892;BME280;21993;42.672;23.296;2023-05-12T01:38:52;94973.69;;;10.53;71.66
35892;BME280;21993;42.672;23.296;2023-05-12T01:41:17;94965.22;;;10.49;72.00
35892;BME280;21993;42.672;23.296;2023-05-12T01:43:43;94963.44;;;10.50;71.84
35892;BME280;21993;42.672;23.296;2023-05-12T01:46:08;94968.22;;;10.65;71.66
35892;BME280;21993;42.672;23.296;2023-05-12T01:48:34;94965.94;;;10.51;72.15
35892;BME280;21993;42.672;23.296;2023-05-12T01:51:00;94972.66;;;10.23;73.10
35892;BME280;21993;42.672;23.296;2023-05-12T01:53:25;94960.47;;;10.01;72.74
35892;BME280;21993;42.672;23.296;2023-05-12T01:55:51;94964.53;;;10.15;73.03
35892;BME280;21993;42.672;23.296;2023-05-12T01:58:16;94955.25;;;10.22;73.50
35892;BME280;21993;42.672;23.296;2023-05-12T02:00:44;94957.94;;;10.32;73.31
35892;BME280;21993;42.672;23.296;2023-05-12T02:03:09;94954.81;;;10.06;73.67
35892;BME280;21993;42.672;23.296;2023-05-12T02:05:35;94959.69;;;10.10;73.86
35892;BME280;21993;42.672;23.296;2023-05-12T02:08:00;94958.06;;;9.98;74.05
35892;BME280;21993;42.672;23.296;2023-05-12T02:10:26;94963.56;;;9.95;74.64
35892;BME280;21993;42.672;23.296;2023-05-12T02:12:51;94962.63;;;9.96;74.42
35892;BME280;21993;42.672;23.296;2023-05-12T02:15:17;94955.22;;;10.01;74.30
35892;BME280;21993;42.672;23.296;2023-05-12T02:17:42;94959.63;;;10.01;73.23
35892;BME280;21993;42.672;23.296;2023-05-12T02:20:08;94952.25;;;9.95;74.04
35892;BME280;21993;42.672;23.296;2023-05-12T02:22:36;94959.50;;;9.70;74.40
35892;BME280;21993;42.672;23.296;2023-05-12T02:25:01;94958.63;;;9.81;74.67
35892;BME280;21993;42.672;23.296;2023-05-12T02:27:26;94959.97;;;9.75;75.41
35892;BME280;21993;42.672;23.296;2023-05-12T02:29:52;94957.09;;;9.78;74.53
35892;BME280;21993;42.672;23.296;2023-05-12T02:32:18;94957.34;;;9.75;75.53
35892;BME280;21993;42.672;23.296;2023-05-12T02:34:43;94960.53;;;9.79;74.92
35892;BME280;21993;42.672;23.296;2023-05-12T02:37:10;94964.59;;;9.72;74.94
35892;BME280;21993;42.672;23.296;2023-05-12T02:39:35;94955.00;;;9.61;75.51
35892;BME280;21993;42.672;23.296;2023-05-12T02:42:00;94945.63;;;9.47;76.06
35892;BME280;21993;42.672;23.296;2023-05-12T02:44:26;94968.84;;;9.52;76.05
35892;BME280;21993;42.672;23.296;2023-05-12T02:46:51;94966.22;;;9.52;75.55
35892;BME280;21993;42.672;23.296;2023-05-12T02:49:17;94963.81;;;9.49;76.12
35892;BME280;21993;42.672;23.296;2023-05-12T02:51:42;94956.69;;;9.51;76.07
35892;BME280;21993;42.672;23.296;2023-05-12T02:54:08;94957.34;;;9.64;76.23
35892;BME280;21993;42.672;23.296;2023-05-12T02:56:33;94961.19;;;9.60;76.90
35892;BME280;21993;42.672;23.296;2023-05-12T02:58:58;94963.78;;;9.71;76.39
35892;BME280;21993;42.672;23.296;2023-05-12T03:01:24;94967.00;;;9.64;76.28
35892;BME280;21993;42.672;23.296;2023-05-12T03:03:49;94969.16;;;9.70;76.04
35892;BME280;21993;42.672;23.296;2023-05-12T03:06:15;94969.75;;;9.62;76.42
35892;BME280;21993;42.672;23.296;2023-05-12T03:08:40;94970.69;;;9.72;75.74
35892;BME280;21993;42.672;23.296;2023-05-12T03:11:06;94960.16;;;9.51;76.47
35892;BME280;21993;42.672;23.296;2023-05-12T03:13:31;94970.06;;;9.37;77.62
35892;BME280;21993;42.672;23.296;2023-05-12T03:15:57;94971.97;;;9.35;77.73
35892;BME280;21993;42.672;23.296;2023-05-12T03:18:26;94964.44;;;9.41;77.16
35892;BME280;21993;42.672;23.296;2023-05-12T03:20:52;94970.75;;;9.39;77.20
35892;BME280;21993;42.672;23.296;2023-05-12T03:23:17;94970.63;;;9.40;76.60
35892;BME280;21993;42.672;23.296;2023-05-12T03:25:43;94988.63;;;9.45;77.26
35892;BME280;21993;42.672;23.296;2023-05-12T03:28:08;94980.28;;;9.51;76.94
35892;BME280;21993;42.672;23.296;2023-05-12T03:30:33;94979.53;;;9.49;77.38
35892;BME280;21993;42.672;23.296;2023-05-12T03:32:59;94991.72;;;9.39;78.11
35892;BME280;21993;42.672;23.296;2023-05-12T03:35:24;94991.59;;;9.51;77.04
35892;BME280;21993;42.672;23.296;2023-05-12T03:37:49;94993.47;;;9.61;76.87
35892;BME280;21993;42.672;23.296;2023-05-12T03:40:15;94994.44;;;9.48;77.07
35892;BME280;21993;42.672;23.296;2023-05-12T03:42:43;94985.63;;;9.49;77.31
35892;BME280;21993;42.672;23.296;2023-05-12T03:45:09;94992.16;;;9.55;76.88
35892;BME280;21993;42.672;23.296;2023-05-12T03:47:35;94993.69;;;9.69;76.64
35892;BME280;21993;42.672;23.296;2023-05-12T03:50:00;94993.72;;;9.46;76.62
35892;BME280;21993;42.672;23.296;2023-05-12T03:52:26;95010.66;;;9.42;77.44
35892;BME280;21993;42.672;23.296;2023-05-12T03:54:51;95000.38;;;9.62;76.47
35892;BME280;21993;42.672;23.296;2023-05-12T03:57:17;95004.31;;;9.67;76.53
35892;BME280;21993;42.672;23.296;2023-05-12T03:59:42;95009.56;;;9.67;75.89
35892;BME280;21993;42.672;23.296;2023-05-12T04:02:08;95000.81;;;9.67;76.71
35892;BME280;21993;42.672;23.296;2023-05-12T04:04:36;94998.81;;;9.70;76.35
35892;BME280;21993;42.672;23.296;2023-05-12T04:07:01;95006.06;;;9.78;76.37
35892;BME280;21993;42.672;23.296;2023-05-12T04:09:29;95008.69;;;9.78;75.91
35892;BME280;21993;42.672;23.296;2023-05-12T04:11:55;95010.09;;;9.82;76.11
35892;BME280;21993;42.672;23.296;2023-05-12T04:14:21;95014.06;;;9.76;76.23
35892;BME280;21993;42.672;23.296;2023-05-12T04:16:46;95012.28;;;9.66;76.44
35892;BME280;21993;42.672;23.296;2023-05-12T04:19:12;95018.34;;;9.77;76.44
35892;BME280;21993;42.672;23.296;2023-05-12T04:21:38;95017.53;;;9.54;77.00
35892;BME280;21993;42.672;23.296;2023-05-12T04:24:03;95017.28;;;9.57;76.76
35892;BME280;21993;42.672;23.296;2023-05-12T04:26:29;95014.78;;;9.56;76.24
35892;BME280;21993;42.672;23.296;2023-05-12T04:28:54;95016.31;;;9.70;76.55
35892;BME280;21993;42.672;23.296;2023-05-12T04:31:20;95010.81;;;9.73;76.25
35892;BME280;21993;42.672;23.296;2023-05-12T04:33:45;95008.50;;;9.58;76.10
35892;BME280;21993;42.672;23.296;2023-05-12T04:36:11;95006.00;;;9.46;76.82
35892;BME280;21993;42.672;23.296;2023-05-12T04:38:38;95007.91;;;9.44;76.89
35892;BME280;21993;42.672;23.296;2023-05-12T04:41:04;95009.31;;;9.48;76.62
35892;BME280;21993;42.672;23.296;2023-05-12T04:43:30;95013.00;;;9.68;75.97
35892;BME280;21993;42.672;23.296;2023-05-12T04:45:56;95012.28;;;9.66;76.37
35892;BME280;21993;42.672;23.296;2023-05-12T04:48:21;95008.56;;;9.79;76.15
35892;BME280;21993;42.672;23.296;2023-05-12T04:50:47;95012.88;;;9.69;76.20
35892;BME280;21993;42.672;23.296;2023-05-12T04:53:14;95017.06;;;9.61;76.59
35892;BME280;21993;42.672;23.296;2023-05-12T04:55:40;95015.50;;;9.69;75.92
35892;BME280;21993;42.672;23.296;2023-05-12T04:58:06;95018.94;;;9.70;76.31
35892;BME280;21993;42.672;23.296;2023-05-12T05:00:32;95018.56;;;9.74;75.73
35892;BME280;21993;42.672;23.296;2023-05-12T05:02:57;95013.66;;;9.81;75.73
35892;BME280;21993;42.672;23.296;2023-05-12T05:05:23;95012.94;;;9.90;75.50
35892;BME280;21993;42.672;23.296;2023-05-12T05:07:48;95019.38;;;9.86;75.52
35892;BME280;21993;42.672;23.296;2023-05-12T05:10:13;95014.50;;;9.93;75.56
35892;BME280;21993;42.672;23.296;2023-05-12T05:12:39;95020.78;;;9.90;75.43
35892;BME280;21993;42.672;23.296;2023-05-12T05:15:05;95016.06;;;9.84;75.01
35892;BME280;21993;42.672;23.296;2023-05-12T05:17:30;95023.50;;;10.00;75.65
35892;BME280;21993;42.672;23.296;2023-05-12T05:19:56;95016.28;;;9.92;75.53
35892;BME280;21993;42.672;23.296;2023-05-12T05:22:21;95028.31;;;9.95;75.62
35892;BME280;21993;42.672;23.296;2023-05-12T05:24:46;95020.88;;;10.00;75.37
35892;BME280;21993;42.672;23.296;2023-05-12T05:27:12;95024.94;;;10.04;74.86
35892;BME280;21993;42.672;23.296;2023-05-12T05:29:38;95026.16;;;9.88;74.93
35892;BME280;21993;42.672;23.296;2023-05-12T05:32:03;95023.06;;;9.95;75.13
35892;BME280;21993;42.672;23.296;2023-05-12T05:34:29;95028.75;;;10.00;75.45
35892;BME280;21993;42.672;23.296;2023-05-12T05:36:54;95028.72;;;10.11;75.64
35892;BME280;21993;42.672;23.296;2023-05-12T05:39:19;95032.47;;;9.97;75.05
35892;BME280;21993;42.672;23.296;2023-05-12T05:41:45;95036.94;;;10.06;74.79
35892;BME280;21993;42.672;23.296;2023-05-12T05:44:10;95034.41;;;10.16;74.75
35892;BME280;21993;42.672;23.296;2023-05-12T05:46:35;95023.09;;;10.15;75.01
35892;BME280;21993;42.672;23.296;2023-05-12T05:49:01;95029.56;;;10.11;74.58
35892;BME280;21993;42.672;23.296;2023-05-12T05:51:26;95034.19;;;10.08;74.92
35892;BME280;21993;42.672;23.296;2023-05-12T05:53:52;95034.19;;;10.08;74.86
35892;BME280;21993;42.672;23.296;2023-05-12T05:56:17;95035.75;;;10.10;74.67
35892;BME280;21993;42.672;23.296;2023-05-12T05:58:43;95033.44;;;10.17;74.70
35892;BME280;21993;42.672;23.296;2023-05-12T06:01:08;95037.75;;;10.18;74.58
35892;BME280;21993;42.672;23.296;2023-05-12T06:03:33;95041.84;;;10.11;74.49
35892;BME280;21993;42.672;23.296;2023-05-12T06:05:59;95038.47;;;10.20;74.38
35892;BME280;21993;42.672;23.296;2023-05-12T06:08:24;95038.97;;;10.14;74.28
35892;BME280;21993;42.672;23.296;2023-05-12T06:10:50;95043.25;;;10.15;74.34
35892;BME280;21993;42.672;23.296;2023-05-12T06:13:15;95041.72;;;10.12;74.41
35892;BME280;21993;42.672;23.296;2023-05-12T06:15:40;95049.31;;;10.15;74.66
35892;BME280;21993;42.672;23.296;2023-05-12T06:18:06;95056.47;;;10.25;74.58
35892;BME280;21993;42.672;23.296;2023-05-12T06:20:31;95056.97;;;10.07;74.53
35892;BME280;21993;42.672;23.296;2023-05-12T06:22:57;95056.88;;;10.09;74.58
35892;BME280;21993;42.672;23.296;2023-05-12T06:25:22;95050.97;;;10.16;74.48
35892;BME280;21993;42.672;23.296;2023-05-12T06:27:50;95051.72;;;10.19;73.56
35892;BME280;21993;42.672;23.296;2023-05-12T06:30:16;95049.69;;;10.22;74.14
35892;BME280;21993;42.672;23.296;2023-05-12T06:32:41;95053.63;;;10.28;74.12
35892;BME280;21993;42.672;23.296;2023-05-12T06:35:07;95068.75;;;10.24;73.64
35892;BME280;21993;42.672;23.296;2023-05-12T06:37:33;95058.34;;;10.34;73.35
35892;BME280;21993;42.672;23.296;2023-05-12T06:39:58;95056.94;;;10.30;73.53
35892;BME280;21993;42.672;23.296;2023-05-12T06:42:24;95074.81;;;10.36;73.59
35892;BME280;21993;42.672;23.296;2023-05-12T06:44:49;95062.06;;;10.31;74.09
35892;BME280;21993;42.672;23.296;2023-05-12T06:47:15;95065.38;;;10.33;73.41
35892;BME280;21993;42.672;23.296;2023-05-12T06:49:41;95062.25;;;10.39;73.26
35892;BME280;21993;42.672;23.296;2023-05-12T06:52:06;95066.53;;;10.40;72.60
35892;BME280;21993;42.672;23.296;2023-05-12T06:54:32;95068.31;;;10.51;73.39
35892;BME280;21993;42.672;23.296;2023-05-12T06:56:58;95068.88;;;10.55;72.73
35892;BME280;21993;42.672;23.296;2023-05-12T06:59:23;95063.75;;;10.53;72.34
35892;BME280;21993;42.672;23.296;2023-05-12T07:01:48;95064.00;;;10.50;72.19
35892;BME280;21993;42.672;23.296;2023-05-12T07:04:14;95055.06;;;10.53;72.75
35892;BME280;21993;42.672;23.296;2023-05-12T07:06:39;95069.63;;;10.46;72.49
35892;BME280;21993;42.672;23.296;2023-05-12T07:09:05;95065.22;;;10.46;72.26
35892;BME280;21993;42.672;23.296;2023-05-12T07:11:30;95063.50;;;10.56;72.36
35892;BME280;21993;42.672;23.296;2023-05-12T07:13:56;95068.06;;;10.54;72.44
35892;BME280;21993;42.672;23.296;2023-05-12T07:16:21;95067.56;;;10.60;72.13
35892;BME280;21993;42.672;23.296;2023-05-12T07:18:47;95063.56;;;10.66;72.82
35892;BME280;21993;42.672;23.296;2023-05-12T07:21:12;95069.97;;;10.73;72.58
35892;BME280;21993;42.672;23.296;2023-05-12T07:23:38;95064.53;;;10.65;72.28
35892;BME280;21993;42.672;23.296;2023-05-12T07:26:06;95078.88;;;10.61;72.04
35892;BME280;21993;42.672;23.296;2023-05-12T07:28:32;95068.69;;;10.67;72.17
35892;BME280;21993;42.672;23.296;2023-05-12T07:31:06;95068.78;;;10.77;71.89
35892;BME280;21993;42.672;23.296;2023-05-12T07:33:32;95076.47;;;10.69;72.08
35892;BME280;21993;42.672;23.296;2023-05-12T07:35:58;95064.59;;;10.75;71.57
35892;BME280;21993;42.672;23.296;2023-05-12T07:38:24;95067.94;;;10.77;72.55
35892;BME280;21993;42.672;23.296;2023-05-12T07:40:49;95074.53;;;10.71;71.81
35892;BME280;21993;42.672;23.296;2023-05-12T07:43:15;95070.31;;;10.80;72.10
35892;BME280;21993;42.672;23.296;2023-05-12T07:45:45;95083.81;;;10.75;71.40
35892;BME280;21993;42.672;23.296;2023-05-12T07:48:11;95078.88;;;10.82;72.19
35892;BME280;21993;42.672;23.296;2023-05-12T07:50:36;95071.84;;;10.82;71.65
35892;BME280;21993;42.672;23.296;2023-05-12T07:53:02;95075.28;;;10.83;71.79
35892;BME280;21993;42.672;23.296;2023-05-12T07:55:28;95071.50;;;10.76;71.93
35892;BME280;21993;42.672;23.296;2023-05-12T07:57:54;95076.38;;;10.80;71.96
35892;BME280;21993;42.672;23.296;2023-05-12T08:00:19;95062.69;;;10.77;71.68
35892;BME280;21993;42.672;23.296;2023-05-12T08:02:45;95067.09;;;10.76;72.76
35892;BME280;21993;42.672;23.296;2023-05-12T08:05:11;95059.16;;;10.87;71.83
35892;BME280;21993;42.672;23.296;2023-05-12T08:07:37;95063.19;;;10.91;71.67
35892;BME280;21993;42.672;23.296;2023-05-12T08:10:04;95059.09;;;10.98;70.52
35892;BME280;21993;42.672;23.296;2023-05-12T08:12:30;95070.94;;;10.93;70.64
35892;BME280;21993;42.672;23.296;2023-05-12T08:14:55;95064.91;;;10.81;71.10
35892;BME280;21993;42.672;23.296;2023-05-12T08:17:21;95061.09;;;10.85;70.53
35892;BME280;21993;42.672;23.296;2023-05-12T08:19:46;95055.63;;;10.98;71.14
35892;BME280;21993;42.672;23.296;2023-05-12T08:22:11;95063.81;;;11.05;71.04
35892;BME280;21993;42.672;23.296;2023-05-12T08:24:37;95064.38;;;11.08;70.46
35892;BME280;21993;42.672;23.296;2023-05-12T08:27:02;95060.69;;;11.11;70.04
35892;BME280;21993;42.672;23.296;2023-05-12T08:29:28;95062.53;;;11.20;70.09
35892;BME280;21993;42.672;23.296;2023-05-12T08:31:53;95068.16;;;11.36;69.60
35892;BME280;21993;42.672;23.296;2023-05-12T08:34:19;95064.78;;;11.34;70.60
35892;BME280;21993;42.672;23.296;2023-05-12T08:36:44;95059.47;;;11.45;70.63
35892;BME280;21993;42.672;23.296;2023-05-12T08:39:10;95061.69;;;11.50;69.82
35892;BME280;21993;42.672;23.296;2023-05-12T08:41:54;95068.59;;;11.51;68.88
35892;BME280;21993;42.672;23.296;2023-05-12T08:44:23;95063.44;;;11.70;68.66
35892;BME280;21993;42.672;23.296;2023-05-12T08:46:50;95071.97;;;11.63;68.63
35892;BME280;21993;42.672;23.296;2023-05-12T08:49:20;95060.78;;;11.30;68.60
35892;BME280;21993;42.672;23.296;2023-05-12T08:51:47;95063.75;;;11.46;68.00
35892;BME280;21993;42.672;23.296;2023-05-12T08:54:13;95066.56;;;11.54;68.30
35892;BME280;21993;42.672;23.296;2023-05-12T08:56:39;95066.41;;;11.56;68.29
35892;BME280;21993;42.672;23.296;2023-05-12T08:59:07;95063.69;;;11.67;68.50
35892;BME280;21993;42.672;23.296;2023-05-12T09:01:34;95066.47;;;11.75;67.06
35892;BME280;21993;42.672;23.296;2023-05-12T09:04:00;95063.06;;;11.84;67.54
35892;BME280;21993;42.672;23.296;2023-05-12T09:06:25;95056.28;;;11.82;67.43
35892;BME280;21993;42.672;23.296;2023-05-12T09:08:51;95055.59;;;11.80;68.15
35892;BME280;21993;42.672;23.296;2023-05-12T09:11:18;95053.06;;;11.78;66.66
35892;BME280;21993;42.672;23.296;2023-05-12T09:13:51;95053.75;;;11.71;66.94
35892;BME280;21993;42.672;23.296;2023-05-12T09:16:23;95046.59;;;11.82;66.46
35892;BME280;21993;42.672;23.296;2023-05-12T09:18:55;95045.72;;;11.72;67.03
35892;BME280;21993;42.672;23.296;2023-05-12T09:21:21;95061.53;;;11.82;66.53
35892;BME280;21993;42.672;23.296;2023-05-12T09:24:00;95051.31;;;11.89;66.47
35892;BME280;21993;42.672;23.296;2023-05-12T09:26:52;95052.16;;;11.99;66.18
35892;BME280;21993;42.672;23.296;2023-05-12T09:29:17;95041.94;;;11.96;66.13
35892;BME280;21993;42.672;23.296;2023-05-12T09:31:52;95042.19;;;11.93;66.28
35892;BME280;21993;42.672;23.296;2023-05-12T09:34:18;95035.16;;;12.13;65.47
35892;BME280;21993;42.672;23.296;2023-05-12T09:37:03;95046.66;;;12.21;64.01
35892;BME280;21993;42.672;23.296;2023-05-12T09:39:29;95039.16;;;11.97;64.80
35892;BME280;21993;42.672;23.296;2023-05-12T09:41:55;95049.00;;;11.95;65.02
35892;BME280;21993;42.672;23.296;2023-05-12T09:44:22;95047.47;;;12.02;64.79
35892;BME280;21993;42.672;23.296;2023-05-12T09:46:48;95047.59;;;12.01;65.78
35892;BME280;21993;42.672;23.296;2023-05-12T09:49:20;95047.22;;;12.15;65.42
35892;BME280;21993;42.672;23.296;2023-05-12T09:51:50;95042.38;;;12.20;64.38
35892;BME280;21993;42.672;23.296;2023-05-12T09:54:29;95046.81;;;12.20;64.63
35892;BME280;21993;42.672;23.296;2023-05-12T09:57:05;95044.31;;;12.28;63.74
35892;BME280;21993;42.672;23.296;2023-05-12T09:59:32;95043.06;;;12.22;64.30
35892;BME280;21993;42.672;23.296;2023-05-12T10:02:00;95043.34;;;12.29;63.00
35892;BME280;21993;42.672;23.296;2023-05-12T10:04:35;95045.69;;;12.13;62.43
35892;BME280;21993;42.672;23.296;2023-05-12T10:07:07;95036.97;;;12.12;63.92
35892;BME280;21993;42.672;23.296;2023-05-12T10:09:35;95039.16;;;12.17;63.89
35892;BME280;21993;42.672;23.296;2023-05-12T10:12:03;95026.84;;;12.07;64.34
35892;BME280;21993;42.672;23.296;2023-05-12T10:14:30;95027.00;;;12.25;63.83
35892;BME280;21993;42.672;23.296;2023-05-12T10:16:56;95020.06;;;12.34;64.13
35892;BME280;21993;42.672;23.296;2023-05-12T10:19:24;95031.31;;;12.46;63.85
35892;BME280;21993;42.672;23.296;2023-05-12T10:21:50;95028.94;;;12.43;62.93
35892;BME280;21993;42.672;23.296;2023-05-12T10:24:16;95031.56;;;12.52;62.12
35892;BME280;21993;42.672;23.296;2023-05-12T10:26:42;95034.06;;;12.63;62.29
35892;BME280;21993;42.672;23.296;2023-05-12T10:29:09;95027.25;;;12.71;62.44
35892;BME280;21993;42.672;23.296;2023-05-12T10:31:38;95032.94;;;12.66;61.00
35892;BME280;21993;42.672;23.296;2023-05-12T10:34:04;95021.72;;;12.74;61.05
35892;BME280;21993;42.672;23.296;2023-05-12T10:36:31;95012.97;;;12.73;61.54
35892;BME280;21993;42.672;23.296;2023-05-12T10:39:06;95021.97;;;12.80;60.88
35892;BME280;21993;42.672;23.296;2023-05-12T10:41:33;95021.69;;;12.83;60.92
35892;BME280;21993;42.672;23.296;2023-05-12T10:43:59;95021.63;;;13.03;61.21
35892;BME280;21993;42.672;23.296;2023-05-12T10:46:25;95009.16;;;13.05;60.69
35892;BME280;21993;42.672;23.296;2023-05-12T10:51:22;95011.47;;;13.17;61.14
35892;BME280;21993;42.672;23.296;2023-05-12T10:54:02;95006.50;;;13.24;59.85
35892;BME280;21993;42.672;23.296;2023-05-12T11:02:05;95010.06;;;13.33;59.89
35892;BME280;21993;42.672;23.296;2023-05-12T11:04:39;95012.13;;;13.39;59.92
35892;BME280;21993;42.672;23.296;2023-05-12T11:07:06;95009.19;;;13.42;59.07
35892;BME280;21993;42.672;23.296;2023-05-12T11:09:44;95013.00;;;13.57;59.36
35892;BME280;21993;42.672;23.296;2023-05-12T11:12:10;95015.25;;;13.52;58.46
35892;BME280;21993;42.672;23.296;2023-05-12T11:14:37;95023.47;;;13.49;58.79
35892;BME280;21993;42.672;23.296;2023-05-12T11:17:03;95019.75;;;13.42;59.51
35892;BME280;21993;42.672;23.296;2023-05-12T11:19:30;95019.41;;;13.55;58.86
35892;BME280;21993;42.672;23.296;2023-05-12T11:21:56;95027.19;;;13.56;58.65
35892;BME280;21993;42.672;23.296;2023-05-12T11:24:22;95026.47;;;13.64;58.46
35892;BME280;21993;42.672;23.296;2023-05-12T11:26:47;95012.91;;;13.76;58.44
35892;BME280;21993;42.672;23.296;2023-05-12T11:29:20;95008.41;;;13.59;58.19
35892;BME280;21993;42.672;23.296;2023-05-12T11:31:52;95015.34;;;13.60;59.03
35892;BME280;21993;42.672;23.296;2023-05-12T11:34:25;95017.72;;;13.63;59.41
35892;BME280;21993;42.672;23.296;2023-05-12T11:36:53;95032.19;;;13.77;59.00
35892;BME280;21993;42.672;23.296;2023-05-12T11:39:20;95019.56;;;13.80;58.33
35892;BME280;21993;42.672;23.296;2023-05-12T11:41:46;95012.72;;;13.88;57.59
35892;BME280;21993;42.672;23.296;2023-05-12T11:44:16;95025.31;;;13.94;57.73
35892;BME280;21993;42.672;23.296;2023-05-12T11:47:13;95021.56;;;13.69;57.79
35892;BME280;21993;42.672;23.296;2023-05-12T11:49:50;95013.25;;;13.64;58.38
35892;BME280;21993;42.672;23.296;2023-05-12T11:52:18;95023.09;;;13.62;58.42
35892;BME280;21993;42.672;23.296;2023-05-12T11:54:51;95015.50;;;13.59;58.62
35892;BME280;21993;42.672;23.296;2023-05-12T11:57:31;95020.81;;;13.76;57.92
35892;BME280;21993;42.672;23.296;2023-05-12T12:00:03;95017.72;;;13.63;56.82
35892;BME280;21993;42.672;23.296;2023-05-12T12:02:29;95021.69;;;13.67;57.10
35892;BME280;21993;42.672;23.296;2023-05-12T12:04:55;95013.06;;;13.75;57.15
35892;BME280;21993;42.672;23.296;2023-05-12T12:07:33;95006.78;;;13.76;57.30
35892;BME280;21993;42.672;23.296;2023-05-12T12:10:12;95006.06;;;13.84;58.42
35892;BME280;21993;42.672;23.296;2023-05-12T12:12:42;95018.19;;;13.76;58.75
35892;BME280;21993;42.672;23.296;2023-05-12T12:15:09;95019.66;;;13.89;57.02
35892;BME280;21993;42.672;23.296;2023-05-12T12:17:34;95019.34;;;13.92;56.94
35892;BME280;21993;42.672;23.296;2023-05-12T12:20:00;95017.84;;;13.89;56.56
35892;BME280;21993;42.672;23.296;2023-05-12T12:22:25;95017.09;;;13.97;56.92
35892;BME280;21993;42.672;23.296;2023-05-12T12:24:51;95014.84;;;14.02;57.00
35892;BME280;21993;42.672;23.296;2023-05-12T12:27:16;95016.88;;;13.90;56.30
35892;BME280;21993;42.672;23.296;2023-05-12T12:29:42;95020.78;;;14.04;55.09
35892;BME280;21993;42.672;23.296;2023-05-12T12:32:07;95020.91;;;13.85;56.47
35892;BME280;21993;42.672;23.296;2023-05-12T12:34:33;95018.16;;;14.04;56.06
35892;BME280;21993;42.672;23.296;2023-05-12T12:36:59;95026.00;;;13.96;56.45
35892;BME280;21993;42.672;23.296;2023-05-12T12:39:24;95019.94;;;13.86;56.01
35892;BME280;21993;42.672;23.296;2023-05-12T12:41:50;95013.31;;;13.82;55.47
35892;BME280;21993;42.672;23.296;2023-05-12T12:44:16;95017.38;;;13.94;55.92
35892;BME280;21993;42.672;23.296;2023-05-12T12:46:42;95029.13;;;13.82;55.12
35892;BME280;21993;42.672;23.296;2023-05-12T12:49:07;95017.75;;;13.81;55.03
35892;BME280;21993;42.672;23.296;2023-05-12T12:51:32;95013.16;;;13.83;54.79
35892;BME280;21993;42.672;23.296;2023-05-12T12:53:58;95017.16;;;13.60;55.75
35892;BME280;21993;42.672;23.296;2023-05-12T12:56:23;95010.78;;;13.62;54.84
35892;BME280;21993;42.672;23.296;2023-05-12T12:58:50;95005.03;;;13.67;55.76
35892;BME280;21993;42.672;23.296;2023-05-12T13:01:15;95005.38;;;13.82;55.55